sensor_id;sensor_type;location;lat;lon;timestamp;P1;durP1;ratioP1;P2;durP2;ratioP2
70010;SDS011;59543;37.950;-122.338;2022-12-11T00:02:07;44.88;;;8.38;;
70010;SDS011;59543;37.950;-122.338;2022-12-11T00:04:33;44.83;;;8.77;;
70010;SDS011;59543;37.950;-122.338;2022-12-11T00:07:00;48.33;;;9.07;;
70010;SDS011;59543;37.950;-122.338;2022-12-11T00:09:26;50.55;;;9.48;;
70010;SDS011;59543;37.950;-122.338;2022-12-11T00:11:52;50.90;;;10.32;;
70010;SDS011;59543;37.950;-122.338;2022-12-11T00:14:19;52.10;;;9.85;;
70010;SDS011;59543;37.950;-122.338;2022-12-11T00:16:46;53.55;;;9.73;;
70010;SDS011;59543;37.950;-122.338;2022-12-11T00:19:14;51.85;;;10.55;;
70010;SDS011;59543;37.950;-122.338;2022-12-11T00:21:40;54.40;;;10.10;;
70010;SDS011;59543;37.950;-122.338;2022-12-11T00:24:06;51.35;;;10.45;;
70010;SDS011;59543;37.950;-122.338;2022-12-11T00:26:32;53.22;;;10.65;;
70010;SDS011;59543;37.950;-122.338;2022-12-11T00:28:59;45.20;;;9.20;;
70010;SDS011;59543;37.950;-122.338;2022-12-11T00:31:25;55.33;;;11.07;;
70010;SDS011;59543;37.950;-122.338;2022-12-11T00:33:51;57.85;;;10.93;;
70010;SDS011;59543;37.950;-122.338;2022-12-11T00:36:18;51.53;;;10.23;;
70010;SDS011;59543;37.950;-122.338;2022-12-11T00:38:47;38.65;;;8.45;;
70010;SDS011;59543;37.950;-122.338;2022-12-11T00:41:14;53.00;;;8.88;;
70010;SDS011;59543;37.950;-122.338;2022-12-11T00:43:41;47.85;;;9.80;;
70010;SDS011;59543;37.950;-122.338;2022-12-11T00:46:07;59.28;;;10.15;;
70010;SDS011;59543;37.950;-122.338;2022-12-11T00:48:34;57.00;;;9.93;;
70010;SDS011;59543;37.950;-122.338;2022-12-11T00:51:00;55.00;;;10.27;;
70010;SDS011;59543;37.950;-122.338;2022-12-11T00:53:27;48.10;;;9.95;;
70010;SDS011;59543;37.950;-122.338;2022-12-11T00:55:53;56.85;;;10.23;;
70010;SDS011;59543;37.950;-122.338;2022-12-11T00:58:19;52.25;;;10.13;;
70010;SDS011;59543;37.950;-122.338;2022-12-11T01:00:45;65.13;;;10.10;;
70010;SDS011;59543;37.950;-122.338;2022-12-11T01:03:14;44.10;;;9.02;;
70010;SDS011;59543;37.950;-122.338;2022-12-11T01:05:49;53.90;;;10.07;;
70010;SDS011;59543;37.950;-122.338;2022-12-11T01:08:17;57.35;;;9.80;;
70010;SDS011;59543;37.950;-122.338;2022-12-11T01:10:43;49.72;;;9.73;;
70010;SDS011;59543;37.950;-122.338;2022-12-11T01:13:09;49.75;;;9.52;;
70010;SDS011;59543;37.950;-122.338;2022-12-11T01:15:41;55.40;;;9.30;;
70010;SDS011;59543;37.950;-122.338;2022-12-11T01:18:09;57.35;;;9.52;;
70010;SDS011;59543;37.950;-122.338;2022-12-11T01:20:38;59.63;;;9.57;;
70010;SDS011;59543;37.950;-122.338;2022-12-11T01:23:06;56.05;;;9.63;;
70010;SDS011;59543;37.950;-122.338;2022-12-11T01:25:34;52.25;;;9.10;;
70010;SDS011;59543;37.950;-122.338;2022-12-11T01:28:02;49.65;;;9.75;;
70010;SDS011;59543;37.950;-122.338;2022-12-11T01:30:29;47.38;;;9.13;;
70010;SDS011;59543;37.950;-122.338;2022-12-11T01:32:56;53.63;;;8.55;;
70010;SDS011;59543;37.950;-122.338;2022-12-11T01:35:22;39.33;;;7.45;;
70010;SDS011;59543;37.950;-122.338;2022-12-11T01:37:48;40.45;;;7.53;;
70010;SDS011;59543;37.950;-122.338;2022-12-11T01:40:17;41.60;;;7.25;;
70010;SDS011;59543;37.950;-122.338;2022-12-11T01:42:44;42.83;;;7.68;;
70010;SDS011;59543;37.950;-122.338;2022-12-11T01:47:46;33.75;;;7.18;;
70010;SDS011;59543;37.950;-122.338;2022-12-11T01:50:14;39.40;;;7.00;;
70010;SDS011;59543;37.950;-122.338;2022-12-11T01:52:41;33.05;;;7.28;;
70010;SDS011;59543;37.950;-122.338;2022-12-11T01:55:11;38.45;;;7.05;;
70010;SDS011;59543;37.950;-122.338;2022-12-11T01:57:39;40.78;;;7.35;;
70010;SDS011;59543;37.950;-122.338;2022-12-11T02:00:08;35.92;;;6.75;;
70010;SDS011;59543;37.950;-122.338;2022-12-11T02:02:35;38.35;;;6.93;;
70010;SDS011;59543;37.950;-122.338;2022-12-11T02:05:02;39.92;;;6.75;;
70010;SDS011;59543;37.950;-122.338;2022-12-11T02:07:31;34.20;;;7.13;;
70010;SDS011;59543;37.950;-122.338;2022-12-11T02:10:05;38.42;;;7.03;;
70010;SDS011;59543;37.950;-122.338;2022-12-11T02:15:56;32.20;;;6.40;;
70010;SDS011;59543;37.950;-122.338;2022-12-11T02:29:02;37.00;;;7.55;;
70010;SDS011;59543;37.950;-122.338;2022-12-11T02:36:45;42.42;;;7.18;;
70010;SDS011;59543;37.950;-122.338;2022-12-11T02:39:17;37.42;;;7.82;;
70010;SDS011;59543;37.950;-122.338;2022-12-11T02:41:48;33.22;;;6.97;;
70010;SDS011;59543;37.950;-122.338;2022-12-11T02:44:16;36.50;;;6.57;;
70010;SDS011;59543;37.950;-122.338;2022-12-11T02:46:47;36.55;;;6.18;;
70010;SDS011;59543;37.950;-122.338;2022-12-11T02:49:15;31.95;;;5.40;;
70010;SDS011;59543;37.950;-122.338;2022-12-11T02:51:43;30.38;;;6.20;;
70010;SDS011;59543;37.950;-122.338;2022-12-11T02:54:13;31.83;;;5.95;;
70010;SDS011;59543;37.950;-122.338;2022-12-11T02:59:58;27.30;;;5.40;;
70010;SDS011;59543;37.950;-122.338;2022-12-11T03:02:25;25.80;;;5.20;;
70010;SDS011;59543;37.950;-122.338;2022-12-11T03:04:51;20.65;;;4.43;;
70010;SDS011;59543;37.950;-122.338;2022-12-11T03:07:19;18.75;;;4.25;;
70010;SDS011;59543;37.950;-122.338;2022-12-11T03:09:49;17.75;;;3.92;;
70010;SDS011;59543;37.950;-122.338;2022-12-11T03:12:18;22.63;;;4.65;;
70010;SDS011;59543;37.950;-122.338;2022-12-11T03:14:48;21.02;;;3.97;;
70010;SDS011;59543;37.950;-122.338;2022-12-11T03:17:22;22.20;;;4.68;;
70010;SDS011;59543;37.950;-122.338;2022-12-11T03:23:02;26.40;;;4.32;;
70010;SDS011;59543;37.950;-122.338;2022-12-11T03:25:35;26.80;;;5.50;;
70010;SDS011;59543;37.950;-122.338;2022-12-11T03:30:57;35.47;;;8.07;;
70010;SDS011;59543;37.950;-122.338;2022-12-11T03:33:32;41.97;;;7.38;;
70010;SDS011;59543;37.950;-122.338;2022-12-11T03:36:06;42.78;;;7.65;;
70010;SDS011;59543;37.950;-122.338;2022-12-11T03:38:40;41.63;;;7.47;;
70010;SDS011;59543;37.950;-122.338;2022-12-11T03:41:15;40.33;;;6.85;;
70010;SDS011;59543;37.950;-122.338;2022-12-11T03:43:44;38.22;;;6.68;;
70010;SDS011;59543;37.950;-122.338;2022-12-11T03:46:13;41.50;;;7.25;;
70010;SDS011;59543;37.950;-122.338;2022-12-11T03:48:41;41.92;;;6.63;;
70010;SDS011;59543;37.950;-122.338;2022-12-11T03:51:10;27.63;;;5.53;;
70010;SDS011;59543;37.950;-122.338;2022-12-11T03:53:38;24.13;;;5.00;;
70010;SDS011;59543;37.950;-122.338;2022-12-11T03:56:05;24.52;;;4.53;;
70010;SDS011;59543;37.950;-122.338;2022-12-11T03:58:33;21.42;;;4.00;;
70010;SDS011;59543;37.950;-122.338;2022-12-11T04:01:00;28.08;;;4.53;;
70010;SDS011;59543;37.950;-122.338;2022-12-11T04:03:26;21.73;;;4.00;;
70010;SDS011;59543;37.950;-122.338;2022-12-11T04:05:53;20.73;;;3.60;;
70010;SDS011;59543;37.950;-122.338;2022-12-11T04:08:20;12.50;;;3.20;;
70010;SDS011;59543;37.950;-122.338;2022-12-11T04:10:49;21.83;;;4.03;;
70010;SDS011;59543;37.950;-122.338;2022-12-11T04:13:38;19.95;;;4.00;;
70010;SDS011;59543;37.950;-122.338;2022-12-11T04:16:06;20.92;;;3.78;;
70010;SDS011;59543;37.950;-122.338;2022-12-11T04:18:32;25.50;;;4.25;;
70010;SDS011;59543;37.950;-122.338;2022-12-11T04:21:17;17.85;;;3.38;;
70010;SDS011;59543;37.950;-122.338;2022-12-11T04:24:02;13.65;;;3.05;;
70010;SDS011;59543;37.950;-122.338;2022-12-11T04:26:40;15.95;;;3.50;;
70010;SDS011;59543;37.950;-122.338;2022-12-11T04:29:07;15.00;;;3.53;;
70010;SDS011;59543;37.950;-122.338;2022-12-11T04:31:34;12.32;;;2.85;;
70010;SDS011;59543;37.950;-122.338;2022-12-11T04:34:00;16.90;;;3.70;;
70010;SDS011;59543;37.950;-122.338;2022-12-11T04:36:26;15.65;;;3.90;;
70010;SDS011;59543;37.950;-122.338;2022-12-11T04:38:53;20.75;;;3.50;;
70010;SDS011;59543;37.950;-122.338;2022-12-11T04:41:19;14.50;;;2.65;;
70010;SDS011;59543;37.950;-122.338;2022-12-11T04:43:45;13.57;;;2.65;;
70010;SDS011;59543;37.950;-122.338;2022-12-11T04:46:13;12.77;;;2.50;;
70010;SDS011;59543;37.950;-122.338;2022-12-11T04:48:41;12.57;;;2.47;;
70010;SDS011;59543;37.950;-122.338;2022-12-11T04:51:08;14.65;;;2.55;;
70010;SDS011;59543;37.950;-122.338;2022-12-11T04:53:35;15.50;;;2.83;;
70010;SDS011;59543;37.950;-122.338;2022-12-11T04:56:09;11.68;;;2.33;;
70010;SDS011;59543;37.950;-122.338;2022-12-11T04:58:37;12.40;;;2.50;;
70010;SDS011;59543;37.950;-122.338;2022-12-11T05:01:08;13.05;;;2.40;;
70010;SDS011;59543;37.950;-122.338;2022-12-11T05:03:39;20.27;;;2.90;;
70010;SDS011;59543;37.950;-122.338;2022-12-11T05:06:06;11.95;;;2.67;;
70010;SDS011;59543;37.950;-122.338;2022-12-11T05:08:34;18.33;;;2.50;;
70010;SDS011;59543;37.950;-122.338;2022-12-11T05:11:02;13.43;;;2.75;;
70010;SDS011;59543;37.950;-122.338;2022-12-11T05:13:30;16.60;;;2.70;;
70010;SDS011;59543;37.950;-122.338;2022-12-11T05:15:57;16.30;;;2.40;;
70010;SDS011;59543;37.950;-122.338;2022-12-11T05:18:24;12.95;;;2.42;;
70010;SDS011;59543;37.950;-122.338;2022-12-11T05:20:54;11.15;;;2.30;;
70010;SDS011;59543;37.950;-122.338;2022-12-11T05:23:22;11.32;;;1.80;;
70010;SDS011;59543;37.950;-122.338;2022-12-11T05:26:00;11.75;;;2.40;;
70010;SDS011;59543;37.950;-122.338;2022-12-11T05:28:29;12.15;;;2.17;;
70010;SDS011;59543;37.950;-122.338;2022-12-11T05:30:58;8.55;;;2.00;;
70010;SDS011;59543;37.950;-122.338;2022-12-11T05:33:26;12.02;;;2.10;;
70010;SDS011;59543;37.950;-122.338;2022-12-11T05:35:54;11.13;;;2.33;;
70010;SDS011;59543;37.950;-122.338;2022-12-11T05:38:20;13.02;;;2.55;;
70010;SDS011;59543;37.950;-122.338;2022-12-11T05:43:26;15.07;;;2.40;;
70010;SDS011;59543;37.950;-122.338;2022-12-11T05:45:54;10.20;;;2.03;;
70010;SDS011;59543;37.950;-122.338;2022-12-11T05:48:21;10.68;;;2.47;;
70010;SDS011;59543;37.950;-122.338;2022-12-11T05:50:57;10.73;;;2.45;;
70010;SDS011;59543;37.950;-122.338;2022-12-11T05:53:25;14.60;;;3.08;;
70010;SDS011;59543;37.950;-122.338;2022-12-11T05:55:52;10.05;;;2.50;;
70010;SDS011;59543;37.950;-122.338;2022-12-11T05:58:19;11.15;;;2.10;;
70010;SDS011;59543;37.950;-122.338;2022-12-11T06:00:46;10.45;;;2.40;;
70010;SDS011;59543;37.950;-122.338;2022-12-11T06:03:12;12.57;;;2.75;;
70010;SDS011;59543;37.950;-122.338;2022-12-11T06:05:39;14.05;;;3.17;;
70010;SDS011;59543;37.950;-122.338;2022-12-11T06:08:07;14.02;;;2.45;;
70010;SDS011;59543;37.950;-122.338;2022-12-11T06:10:33;10.38;;;2.47;;
70010;SDS011;59543;37.950;-122.338;2022-12-11T06:12:59;16.08;;;2.97;;
70010;SDS011;59543;37.950;-122.338;2022-12-11T06:15:26;12.20;;;2.85;;
70010;SDS011;59543;37.950;-122.338;2022-12-11T06:17:52;14.35;;;2.92;;
70010;SDS011;59543;37.950;-122.338;2022-12-11T06:20:18;12.82;;;2.95;;
70010;SDS011;59543;37.950;-122.338;2022-12-11T06:22:44;18.40;;;4.10;;
70010;SDS011;59543;37.950;-122.338;2022-12-11T06:25:11;19.73;;;4.50;;
70010;SDS011;59543;37.950;-122.338;2022-12-11T06:27:37;25.48;;;4.28;;
70010;SDS011;59543;37.950;-122.338;2022-12-11T06:30:03;21.58;;;3.85;;
70010;SDS011;59543;37.950;-122.338;2022-12-11T06:32:29;22.42;;;4.05;;
70010;SDS011;59543;37.950;-122.338;2022-12-11T06:34:56;23.02;;;3.85;;
70010;SDS011;59543;37.950;-122.338;2022-12-11T06:37:22;19.88;;;3.97;;
70010;SDS011;59543;37.950;-122.338;2022-12-11T06:39:48;21.65;;;4.20;;
70010;SDS011;59543;37.950;-122.338;2022-12-11T06:42:14;26.85;;;4.38;;
70010;SDS011;59543;37.950;-122.338;2022-12-11T06:44:41;18.60;;;3.92;;
70010;SDS011;59543;37.950;-122.338;2022-12-11T06:47:07;19.52;;;3.70;;
70010;SDS011;59543;37.950;-122.338;2022-12-11T06:49:34;24.85;;;4.18;;
70010;SDS011;59543;37.950;-122.338;2022-12-11T06:52:00;21.02;;;3.58;;
70010;SDS011;59543;37.950;-122.338;2022-12-11T06:54:26;27.30;;;4.95;;
70010;SDS011;59543;37.950;-122.338;2022-12-11T06:56:53;24.95;;;4.50;;
70010;SDS011;59543;37.950;-122.338;2022-12-11T06:59:19;30.30;;;5.35;;
70010;SDS011;59543;37.950;-122.338;2022-12-11T07:01:45;24.65;;;4.70;;
70010;SDS011;59543;37.950;-122.338;2022-12-11T07:04:12;24.85;;;4.80;;
70010;SDS011;59543;37.950;-122.338;2022-12-11T07:06:38;30.48;;;5.00;;
70010;SDS011;59543;37.950;-122.338;2022-12-11T07:09:05;34.17;;;5.63;;
70010;SDS011;59543;37.950;-122.338;2022-12-11T07:11:31;38.58;;;5.70;;
70010;SDS011;59543;37.950;-122.338;2022-12-11T07:13:58;32.13;;;5.28;;
70010;SDS011;59543;37.950;-122.338;2022-12-11T07:16:27;21.73;;;4.65;;
70010;SDS011;59543;37.950;-122.338;2022-12-11T07:18:53;22.63;;;4.07;;
70010;SDS011;59543;37.950;-122.338;2022-12-11T07:21:20;25.23;;;4.80;;
70010;SDS011;59543;37.950;-122.338;2022-12-11T07:23:46;18.13;;;3.60;;
70010;SDS011;59543;37.950;-122.338;2022-12-11T07:26:14;21.90;;;3.60;;
70010;SDS011;59543;37.950;-122.338;2022-12-11T07:28:42;23.55;;;3.90;;
70010;SDS011;59543;37.950;-122.338;2022-12-11T07:31:19;21.10;;;3.63;;
70010;SDS011;59543;37.950;-122.338;2022-12-11T07:33:51;28.08;;;3.63;;
70010;SDS011;59543;37.950;-122.338;2022-12-11T07:36:22;18.13;;;3.38;;
70010;SDS011;59543;37.950;-122.338;2022-12-11T07:38:49;15.50;;;2.63;;
70010;SDS011;59543;37.950;-122.338;2022-12-11T07:41:15;9.82;;;1.90;;
70010;SDS011;59543;37.950;-122.338;2022-12-11T07:43:42;8.80;;;1.67;;
70010;SDS011;59543;37.950;-122.338;2022-12-11T07:46:13;9.65;;;1.80;;
70010;SDS011;59543;37.950;-122.338;2022-12-11T07:48:42;13.63;;;2.72;;
70010;SDS011;59543;37.950;-122.338;2022-12-11T07:51:14;16.02;;;2.30;;
70010;SDS011;59543;37.950;-122.338;2022-12-11T07:53:51;18.10;;;2.65;;
70010;SDS011;59543;37.950;-122.338;2022-12-11T07:56:18;15.18;;;2.67;;
70010;SDS011;59543;37.950;-122.338;2022-12-11T07:58:45;17.58;;;2.35;;
70010;SDS011;59543;37.950;-122.338;2022-12-11T08:01:16;17.02;;;2.20;;
70010;SDS011;59543;37.950;-122.338;2022-12-11T08:03:46;19.50;;;2.05;;
70010;SDS011;59543;37.950;-122.338;2022-12-11T08:06:13;10.52;;;1.60;;
70010;SDS011;59543;37.950;-122.338;2022-12-11T08:08:39;13.32;;;1.88;;
70010;SDS011;59543;37.950;-122.338;2022-12-11T08:11:07;12.60;;;1.80;;
70010;SDS011;59543;37.950;-122.338;2022-12-11T08:13:35;18.95;;;2.40;;
70010;SDS011;59543;37.950;-122.338;2022-12-11T08:16:02;14.85;;;2.25;;
70010;SDS011;59543;37.950;-122.338;2022-12-11T08:18:30;22.35;;;2.50;;
70010;SDS011;59543;37.950;-122.338;2022-12-11T08:20:57;11.88;;;1.90;;
70010;SDS011;59543;37.950;-122.338;2022-12-11T08:23:24;8.00;;;1.15;;
70010;SDS011;59543;37.950;-122.338;2022-12-11T08:25:50;7.65;;;1.05;;
70010;SDS011;59543;37.950;-122.338;2022-12-11T08:28:16;4.80;;;1.23;;
70010;SDS011;59543;37.950;-122.338;2022-12-11T08:30:42;7.32;;;1.30;;
70010;SDS011;59543;37.950;-122.338;2022-12-11T08:33:08;11.30;;;1.40;;
70010;SDS011;59543;37.950;-122.338;2022-12-11T08:35:37;9.88;;;0.90;;
70010;SDS011;59543;37.950;-122.338;2022-12-11T08:38:04;7.75;;;1.20;;
70010;SDS011;59543;37.950;-122.338;2022-12-11T08:40:30;10.75;;;1.35;;
70010;SDS011;59543;37.950;-122.338;2022-12-11T08:42:56;8.93;;;1.38;;
70010;SDS011;59543;37.950;-122.338;2022-12-11T08:45:23;14.63;;;1.45;;
70010;SDS011;59543;37.950;-122.338;2022-12-11T08:47:49;11.10;;;1.73;;
70010;SDS011;59543;37.950;-122.338;2022-12-11T08:50:15;19.05;;;2.30;;
70010;SDS011;59543;37.950;-122.338;2022-12-11T08:52:41;11.98;;;1.75;;
70010;SDS011;59543;37.950;-122.338;2022-12-11T08:55:08;16.30;;;1.92;;
70010;SDS011;59543;37.950;-122.338;2022-12-11T08:57:34;13.75;;;2.25;;
70010;SDS011;59543;37.950;-122.338;2022-12-11T09:00:00;13.55;;;2.40;;
70010;SDS011;59543;37.950;-122.338;2022-12-11T09:02:26;13.98;;;2.65;;
70010;SDS011;59543;37.950;-122.338;2022-12-11T09:04:52;11.73;;;1.88;;
70010;SDS011;59543;37.950;-122.338;2022-12-11T09:07:19;12.55;;;2.45;;
70010;SDS011;59543;37.950;-122.338;2022-12-11T09:09:45;15.50;;;2.55;;
70010;SDS011;59543;37.950;-122.338;2022-12-11T09:12:11;13.13;;;2.13;;
70010;SDS011;59543;37.950;-122.338;2022-12-11T09:14:38;14.20;;;2.20;;
70010;SDS011;59543;37.950;-122.338;2022-12-11T09:17:04;11.88;;;1.90;;
70010;SDS011;59543;37.950;-122.338;2022-12-11T09:19:30;9.85;;;1.73;;
70010;SDS011;59543;37.950;-122.338;2022-12-11T09:21:57;13.13;;;2.25;;
70010;SDS011;59543;37.950;-122.338;2022-12-11T09:24:23;11.05;;;1.55;;
70010;SDS011;59543;37.950;-122.338;2022-12-11T09:26:49;6.90;;;1.35;;
70010;SDS011;59543;37.950;-122.338;2022-12-11T09:29:15;8.25;;;1.58;;
70010;SDS011;59543;37.950;-122.338;2022-12-11T09:31:41;10.80;;;1.63;;
70010;SDS011;59543;37.950;-122.338;2022-12-11T09:34:09;7.28;;;1.45;;
70010;SDS011;59543;37.950;-122.338;2022-12-11T09:36:37;11.93;;;1.75;;
70010;SDS011;59543;37.950;-122.338;2022-12-11T09:39:05;9.07;;;1.55;;
70010;SDS011;59543;37.950;-122.338;2022-12-11T09:41:36;8.48;;;1.33;;
70010;SDS011;59543;37.950;-122.338;2022-12-11T09:46:39;11.10;;;2.15;;
70010;SDS011;59543;37.950;-122.338;2022-12-11T09:49:13;8.65;;;1.95;;
70010;SDS011;59543;37.950;-122.338;2022-12-11T09:51:49;11.40;;;2.00;;
70010;SDS011;59543;37.950;-122.338;2022-12-11T09:54:38;10.48;;;1.85;;
70010;SDS011;59543;37.950;-122.338;2022-12-11T10:02:56;9.52;;;1.65;;
70010;SDS011;59543;37.950;-122.338;2022-12-11T10:05:49;9.70;;;1.95;;
70010;SDS011;59543;37.950;-122.338;2022-12-11T10:11:14;7.82;;;1.40;;
70010;SDS011;59543;37.950;-122.338;2022-12-11T10:18:59;10.48;;;1.50;;
70010;SDS011;59543;37.950;-122.338;2022-12-11T10:21:26;8.57;;;1.40;;
70010;SDS011;59543;37.950;-122.338;2022-12-11T10:24:01;7.50;;;0.90;;
70010;SDS011;59543;37.950;-122.338;2022-12-11T10:26:36;6.15;;;1.10;;
70010;SDS011;59543;37.950;-122.338;2022-12-11T10:29:05;6.82;;;1.15;;
70010;SDS011;59543;37.950;-122.338;2022-12-11T10:31:56;4.40;;;0.80;;
70010;SDS011;59543;37.950;-122.338;2022-12-11T10:39:26;3.38;;;0.85;;
70010;SDS011;59543;37.950;-122.338;2022-12-11T10:41:53;4.07;;;1.00;;
70010;SDS011;59543;37.950;-122.338;2022-12-11T10:49:29;5.15;;;1.10;;
70010;SDS011;59543;37.950;-122.338;2022-12-11T10:51:57;8.88;;;1.00;;
70010;SDS011;59543;37.950;-122.338;2022-12-11T10:54:31;3.20;;;0.70;;
70010;SDS011;59543;37.950;-122.338;2022-12-11T10:57:03;4.60;;;0.85;;
70010;SDS011;59543;37.950;-122.338;2022-12-11T11:02:31;3.33;;;0.80;;
70010;SDS011;59543;37.950;-122.338;2022-12-11T11:05:09;3.35;;;0.43;;
70010;SDS011;59543;37.950;-122.338;2022-12-11T11:07:41;4.50;;;0.70;;
70010;SDS011;59543;37.950;-122.338;2022-12-11T11:12:38;2.90;;;0.50;;
70010;SDS011;59543;37.950;-122.338;2022-12-11T11:15:22;2.53;;;0.60;;
70010;SDS011;59543;37.950;-122.338;2022-12-11T11:17:52;2.85;;;0.47;;
70010;SDS011;59543;37.950;-122.338;2022-12-11T11:20:22;4.00;;;0.52;;
70010;SDS011;59543;37.950;-122.338;2022-12-11T11:22:55;1.88;;;0.38;;
70010;SDS011;59543;37.950;-122.338;2022-12-11T11:25:25;1.40;;;0.43;;
70010;SDS011;59543;37.950;-122.338;2022-12-11T11:28:04;1.98;;;0.52;;
70010;SDS011;59543;37.950;-122.338;2022-12-11T11:33:20;3.75;;;0.60;;
70010;SDS011;59543;37.950;-122.338;2022-12-11T11:35:58;4.30;;;0.70;;
70010;SDS011;59543;37.950;-122.338;2022-12-11T11:38:36;3.17;;;0.50;;
70010;SDS011;59543;37.950;-122.338;2022-12-11T11:41:30;1.45;;;0.30;;
70010;SDS011;59543;37.950;-122.338;2022-12-11T11:44:07;4.38;;;0.70;;
70010;SDS011;59543;37.950;-122.338;2022-12-11T11:46:47;2.65;;;0.40;;
70010;SDS011;59543;37.950;-122.338;2022-12-11T11:55:02;2.85;;;0.50;;
70010;SDS011;59543;37.950;-122.338;2022-12-11T12:00:35;1.65;;;0.55;;
70010;SDS011;59543;37.950;-122.338;2022-12-11T12:03:03;3.30;;;0.50;;
70010;SDS011;59543;37.950;-122.338;2022-12-11T12:08:10;2.80;;;0.50;;
70010;SDS011;59543;37.950;-122.338;2022-12-11T12:11:10;5.32;;;0.60;;
70010;SDS011;59543;37.950;-122.338;2022-12-11T12:25:21;3.78;;;0.80;;
70010;SDS011;59543;37.950;-122.338;2022-12-11T12:27:58;4.13;;;0.80;;
70010;SDS011;59543;37.950;-122.338;2022-12-11T12:30:30;9.55;;;1.27;;
70010;SDS011;59543;37.950;-122.338;2022-12-11T12:33:25;8.38;;;1.52;;
70010;SDS011;59543;37.950;-122.338;2022-12-11T12:39:05;5.15;;;0.70;;
70010;SDS011;59543;37.950;-122.338;2022-12-11T12:44:21;3.45;;;0.70;;
70010;SDS011;59543;37.950;-122.338;2022-12-11T12:52:00;6.20;;;1.08;;
70010;SDS011;59543;37.950;-122.338;2022-12-11T12:54:28;5.47;;;0.75;;
70010;SDS011;59543;37.950;-122.338;2022-12-11T12:56:56;4.30;;;0.70;;
70010;SDS011;59543;37.950;-122.338;2022-12-11T12:59:26;8.38;;;0.82;;
70010;SDS011;59543;37.950;-122.338;2022-12-11T13:01:56;6.15;;;1.02;;
70010;SDS011;59543;37.950;-122.338;2022-12-11T13:04:35;4.13;;;0.75;;
70010;SDS011;59543;37.950;-122.338;2022-12-11T13:10:02;5.20;;;0.75;;
70010;SDS011;59543;37.950;-122.338;2022-12-11T13:12:49;4.88;;;0.73;;
70010;SDS011;59543;37.950;-122.338;2022-12-11T13:18:01;4.93;;;0.93;;
70010;SDS011;59543;37.950;-122.338;2022-12-11T13:20:30;2.97;;;0.50;;
70010;SDS011;59543;37.950;-122.338;2022-12-11T13:26:04;5.05;;;0.73;;
70010;SDS011;59543;37.950;-122.338;2022-12-11T13:31:04;6.22;;;1.00;;
70010;SDS011;59543;37.950;-122.338;2022-12-11T13:33:50;6.05;;;0.90;;
70010;SDS011;59543;37.950;-122.338;2022-12-11T13:38:46;9.48;;;1.30;;
70010;SDS011;59543;37.950;-122.338;2022-12-11T13:41:16;4.38;;;0.80;;
70010;SDS011;59543;37.950;-122.338;2022-12-11T13:43:45;10.00;;;1.20;;
70010;SDS011;59543;37.950;-122.338;2022-12-11T13:46:13;3.72;;;0.73;;
70010;SDS011;59543;37.950;-122.338;2022-12-11T13:51:16;6.57;;;0.88;;
70010;SDS011;59543;37.950;-122.338;2022-12-11T13:53:44;9.45;;;1.10;;
70010;SDS011;59543;37.950;-122.338;2022-12-11T13:56:19;8.05;;;1.00;;
70010;SDS011;59543;37.950;-122.338;2022-12-11T13:58:46;6.68;;;0.90;;
70010;SDS011;59543;37.950;-122.338;2022-12-11T14:01:15;4.53;;;0.50;;
70010;SDS011;59543;37.950;-122.338;2022-12-11T14:06:21;2.78;;;0.30;;
70010;SDS011;59543;37.950;-122.338;2022-12-11T14:08:50;2.47;;;0.40;;
70010;SDS011;59543;37.950;-122.338;2022-12-11T14:11:37;2.47;;;0.30;;
70010;SDS011;59543;37.950;-122.338;2022-12-11T14:17:11;2.78;;;0.13;;
70010;SDS011;59543;37.950;-122.338;2022-12-11T14:19:40;1.95;;;0.30;;
70010;SDS011;59543;37.950;-122.338;2022-12-11T14:22:17;0.88;;;0.20;;
70010;SDS011;59543;37.950;-122.338;2022-12-11T14:24:55;1.65;;;0.20;;
70010;SDS011;59543;37.950;-122.338;2022-12-11T14:27:24;1.98;;;0.35;;
70010;SDS011;59543;37.950;-122.338;2022-12-11T14:29:52;3.03;;;0.28;;
70010;SDS011;59543;37.950;-122.338;2022-12-11T14:34:54;3.63;;;0.30;;
70010;SDS011;59543;37.950;-122.338;2022-12-11T14:37:20;1.27;;;0.30;;
70010;SDS011;59543;37.950;-122.338;2022-12-11T14:39:56;1.38;;;0.20;;
70010;SDS011;59543;37.950;-122.338;2022-12-11T14:42:49;2.28;;;0.40;;
70010;SDS011;59543;37.950;-122.338;2022-12-11T14:45:33;1.27;;;0.32;;
70010;SDS011;59543;37.950;-122.338;2022-12-11T14:48:06;1.83;;;0.20;;
70010;SDS011;59543;37.950;-122.338;2022-12-11T14:50:46;0.98;;;0.38;;
70010;SDS011;59543;37.950;-122.338;2022-12-11T14:53:29;2.58;;;0.45;;
70010;SDS011;59543;37.950;-122.338;2022-12-11T14:56:02;2.28;;;0.40;;
70010;SDS011;59543;37.950;-122.338;2022-12-11T14:58:31;1.80;;;0.50;;
70010;SDS011;59543;37.950;-122.338;2022-12-11T15:01:03;2.47;;;0.52;;
70010;SDS011;59543;37.950;-122.338;2022-12-11T15:03:35;1.33;;;0.30;;
70010;SDS011;59543;37.950;-122.338;2022-12-11T15:06:17;1.80;;;0.40;;
70010;SDS011;59543;37.950;-122.338;2022-12-11T15:08:56;2.35;;;0.60;;
70010;SDS011;59543;37.950;-122.338;2022-12-11T15:11:22;3.00;;;0.32;;
70010;SDS011;59543;37.950;-122.338;2022-12-11T15:13:56;1.83;;;0.38;;
70010;SDS011;59543;37.950;-122.338;2022-12-11T15:16:24;3.40;;;0.40;;
70010;SDS011;59543;37.950;-122.338;2022-12-11T15:18:54;1.65;;;0.32;;
70010;SDS011;59543;37.950;-122.338;2022-12-11T15:21:29;1.58;;;0.40;;
70010;SDS011;59543;37.950;-122.338;2022-12-11T15:23:59;2.10;;;0.40;;
70010;SDS011;59543;37.950;-122.338;2022-12-11T15:26:34;1.45;;;0.32;;
70010;SDS011;59543;37.950;-122.338;2022-12-11T15:29:03;2.67;;;0.20;;
70010;SDS011;59543;37.950;-122.338;2022-12-11T15:31:32;1.20;;;0.20;;
70010;SDS011;59543;37.950;-122.338;2022-12-11T15:33:59;0.60;;;0.20;;
70010;SDS011;59543;37.950;-122.338;2022-12-11T15:38:57;1.40;;;0.30;;
70010;SDS011;59543;37.950;-122.338;2022-12-11T15:41:24;2.67;;;0.47;;
70010;SDS011;59543;37.950;-122.338;2022-12-11T15:43:51;2.60;;;0.55;;
70010;SDS011;59543;37.950;-122.338;2022-12-11T15:46:19;1.92;;;0.50;;
70010;SDS011;59543;37.950;-122.338;2022-12-11T15:48:48;1.73;;;0.50;;
70010;SDS011;59543;37.950;-122.338;2022-12-11T15:51:15;0.93;;;0.30;;
70010;SDS011;59543;37.950;-122.338;2022-12-11T15:53:41;1.95;;;0.52;;
70010;SDS011;59543;37.950;-122.338;2022-12-11T15:56:17;1.08;;;0.50;;
70010;SDS011;59543;37.950;-122.338;2022-12-11T15:58:43;1.15;;;0.35;;
70010;SDS011;59543;37.950;-122.338;2022-12-11T16:01:11;1.05;;;0.30;;
70010;SDS011;59543;37.950;-122.338;2022-12-11T16:03:38;1.92;;;0.40;;
70010;SDS011;59543;37.950;-122.338;2022-12-11T16:08:30;4.50;;;0.30;;
70010;SDS011;59543;37.950;-122.338;2022-12-11T16:10:56;1.48;;;0.40;;
70010;SDS011;59543;37.950;-122.338;2022-12-11T16:13:22;1.42;;;0.40;;
70010;SDS011;59543;37.950;-122.338;2022-12-11T16:18:17;1.45;;;0.30;;
70010;SDS011;59543;37.950;-122.338;2022-12-11T16:20:45;4.35;;;0.60;;
70010;SDS011;59543;37.950;-122.338;2022-12-11T16:23:13;0.50;;;0.28;;
70010;SDS011;59543;37.950;-122.338;2022-12-11T16:25:40;1.67;;;0.60;;
70010;SDS011;59543;37.950;-122.338;2022-12-11T16:28:09;2.30;;;0.65;;
70010;SDS011;59543;37.950;-122.338;2022-12-11T16:30:37;2.90;;;0.50;;